createdAt,value
2022-12-06T00:01:07.816Z,11.50
2022-12-06T00:03:35.772Z,13.57
2022-12-06T00:06:12.056Z,12.02
2022-12-06T00:08:39.839Z,12.52
2022-12-06T00:11:10.035Z,14.60
2022-12-06T00:13:37.804Z,12.23
2022-12-06T00:16:09.920Z,11.88
2022-12-06T00:18:38.006Z,11.82
2022-12-06T00:21:13.679Z,12.68
2022-12-06T00:23:43.195Z,11.27
2022-12-06T00:26:09.895Z,12.68
2022-12-06T00:28:37.248Z,12.38
2022-12-06T00:31:07.150Z,12.95
2022-12-06T00:33:35.537Z,11.40
2022-12-06T00:36:04.932Z,12.23
2022-12-06T00:38:31.820Z,11.65
2022-12-06T00:41:00.136Z,12.82
2022-12-06T00:43:27.493Z,13.90
2022-12-06T00:45:54.019Z,14.57
2022-12-06T00:48:20.915Z,14.98
2022-12-06T00:50:47.689Z,13.35
2022-12-06T00:53:14.357Z,14.95
2022-12-06T00:55:40.884Z,15.25
2022-12-06T00:58:07.352Z,17.42
2022-12-06T01:00:34.027Z,15.77
2022-12-06T01:03:00.914Z,14.00
2022-12-06T01:05:27.794Z,16.80
2022-12-06T01:07:54.676Z,14.15
2022-12-06T01:10:21.640Z,15.63
2022-12-06T01:12:48.062Z,14.95
2022-12-06T01:15:14.475Z,14.00
2022-12-06T01:17:41.010Z,14.55
2022-12-06T01:20:08.270Z,14.43
2022-12-06T01:22:34.804Z,13.82
2022-12-06T01:25:01.252Z,16.02
2022-12-06T01:27:27.739Z,15.07
2022-12-06T01:29:54.273Z,17.35
2022-12-06T01:32:20.870Z,16.13
2022-12-06T01:34:51.965Z,14.32
2022-12-06T01:37:19.000Z,14.68
2022-12-06T01:39:45.444Z,16.00
2022-12-06T01:42:13.260Z,15.52
2022-12-06T01:44:46.462Z,16.70
2022-12-06T01:47:17.903Z,16.13
2022-12-06T01:49:49.169Z,15.40
2022-12-06T01:52:18.124Z,16.02
2022-12-06T01:54:44.971Z,16.48
2022-12-06T01:57:14.349Z,21.08
2022-12-06T01:59:41.253Z,15.30
2022-12-06T02:02:08.482Z,14.35
2022-12-06T02:04:36.128Z,15.18
2022-12-06T02:07:03.467Z,17.27
2022-12-06T02:09:30.838Z,15.32
2022-12-06T02:11:57.442Z,16.40
2022-12-06T02:14:29.744Z,17.77
2022-12-06T02:17:21.080Z,14.60
2022-12-06T02:20:32.659Z,16.23
2022-12-06T02:23:16.974Z,16.08
2022-12-06T02:26:01.881Z,19.08
2022-12-06T02:28:40.457Z,18.50
2022-12-06T02:31:19.066Z,17.20
2022-12-06T02:33:59.410Z,19.08
2022-12-06T02:36:50.118Z,17.35
2022-12-06T02:39:27.345Z,16.48
2022-12-06T02:42:17.367Z,16.10
2022-12-06T02:44:50.014Z,15.90
2022-12-06T02:47:20.626Z,17.38
2022-12-06T02:49:50.240Z,16.08
2022-12-06T02:52:21.573Z,18.05
2022-12-06T02:54:49.361Z,18.42
2022-12-06T02:57:16.058Z,17.08
2022-12-06T02:59:54.848Z,16.95
2022-12-06T03:02:22.809Z,18.52
2022-12-06T03:05:09.488Z,19.35
2022-12-06T03:07:41.136Z,16.95
2022-12-06T03:10:13.526Z,17.50
2022-12-06T03:12:53.429Z,15.40
2022-12-06T03:15:38.705Z,16.50
2022-12-06T03:18:22.607Z,18.30
2022-12-06T03:20:54.020Z,17.65
2022-12-06T03:23:26.999Z,19.10
2022-12-06T03:25:57.736Z,18.17
2022-12-06T03:28:24.371Z,20.55
2022-12-06T03:30:54.177Z,22.33
2022-12-06T03:33:24.554Z,18.00
2022-12-06T03:35:53.505Z,18.77
2022-12-06T03:38:53.786Z,16.27
2022-12-06T03:41:25.810Z,17.55
2022-12-06T03:43:52.632Z,17.35
2022-12-06T03:46:27.844Z,20.20
2022-12-06T03:49:02.543Z,18.92
2022-12-06T03:51:31.290Z,18.35
2022-12-06T03:56:26.369Z,21.90
2022-12-06T03:58:52.785Z,19.48
2022-12-06T04:01:19.380Z,20.75
2022-12-06T04:03:46.010Z,20.48
2022-12-06T04:06:12.875Z,19.60
2022-12-06T04:08:39.662Z,19.08
2022-12-06T04:11:06.187Z,19.40
2022-12-06T04:13:33.002Z,19.35
2022-12-06T04:16:01.173Z,20.73
2022-12-06T04:18:28.281Z,20.75
2022-12-06T04:21:13.497Z,19.35
2022-12-06T04:23:42.199Z,21.25
2022-12-06T04:28:55.298Z,20.45
2022-12-06T04:31:40.538Z,21.30
2022-12-06T04:34:26.282Z,19.33
2022-12-06T04:37:11.647Z,20.77
2022-12-06T04:39:38.186Z,20.70
2022-12-06T04:42:23.661Z,19.73
2022-12-06T04:44:50.088Z,20.13
2022-12-06T04:47:16.842Z,21.05
2022-12-06T04:49:43.421Z,20.45
2022-12-06T04:52:10.957Z,19.25
2022-12-06T04:54:37.536Z,20.63
2022-12-06T04:57:11.312Z,20.55
2022-12-06T04:59:39.685Z,23.80
2022-12-06T05:02:08.492Z,26.42
2022-12-06T05:04:34.942Z,35.55
2022-12-06T05:07:01.946Z,28.13
2022-12-06T05:09:29.884Z,28.65
2022-12-06T05:11:56.794Z,26.13
2022-12-06T05:14:23.378Z,41.42
2022-12-06T05:16:50.179Z,31.60
2022-12-06T05:19:17.017Z,38.67
2022-12-06T05:21:43.829Z,23.85
2022-12-06T05:24:10.436Z,24.27
2022-12-06T05:26:37.024Z,26.80
2022-12-06T05:29:03.909Z,24.00
2022-12-06T05:31:30.521Z,23.40
2022-12-06T05:33:57.016Z,25.92
2022-12-06T05:36:26.726Z,22.52
2022-12-06T05:38:53.864Z,25.35
2022-12-06T05:41:22.641Z,24.67
2022-12-06T05:46:16.417Z,23.23
2022-12-06T05:48:42.879Z,24.63
2022-12-06T05:51:09.448Z,26.50
2022-12-06T05:53:36.105Z,25.20
2022-12-06T05:56:07.619Z,22.30
2022-12-06T05:58:34.950Z,23.15
2022-12-06T06:01:01.905Z,25.58
2022-12-06T06:03:28.597Z,23.08
2022-12-06T06:05:58.628Z,23.73
2022-12-06T06:08:26.463Z,26.70
2022-12-06T06:10:53.568Z,25.88
2022-12-06T06:13:20.820Z,27.40
2022-12-06T06:15:49.185Z,26.00
2022-12-06T06:18:16.655Z,25.55
2022-12-06T06:20:49.137Z,22.70
2022-12-06T06:23:15.642Z,23.73
2022-12-06T06:25:42.314Z,26.67
2022-12-06T06:28:08.896Z,26.45
2022-12-06T06:30:35.451Z,25.40
2022-12-06T06:33:02.090Z,25.02
2022-12-06T06:35:29.376Z,25.92
2022-12-06T06:37:56.007Z,25.23
2022-12-06T06:40:22.733Z,29.35
2022-12-06T06:42:49.191Z,25.00
2022-12-06T06:45:15.669Z,26.23
2022-12-06T06:47:42.322Z,26.63
2022-12-06T06:50:09.172Z,24.33
2022-12-06T06:52:35.787Z,26.75
2022-12-06T06:55:02.279Z,25.95
2022-12-06T06:57:29.014Z,28.50
2022-12-06T06:59:56.266Z,23.88
2022-12-06T07:02:23.270Z,29.95
2022-12-06T07:04:51.764Z,27.35
2022-12-06T07:07:21.140Z,29.00
2022-12-06T07:09:48.352Z,28.23
2022-12-06T07:12:15.526Z,23.77
2022-12-06T07:14:42.096Z,28.02
2022-12-06T07:17:08.839Z,26.88
2022-12-06T07:19:35.344Z,27.60
2022-12-06T07:22:01.921Z,29.08
2022-12-06T07:24:28.525Z,27.73
2022-12-06T07:26:56.726Z,32.40
2022-12-06T07:29:23.165Z,31.20
2022-12-06T07:31:49.687Z,28.85
2022-12-06T07:34:16.597Z,32.95
2022-12-06T07:36:43.124Z,31.33
2022-12-06T07:39:14.495Z,24.90
2022-12-06T07:42:00.832Z,24.55
2022-12-06T07:45:01.561Z,27.23
2022-12-06T07:47:37.926Z,27.33
2022-12-06T07:50:09.488Z,30.30
2022-12-06T07:52:38.571Z,27.73
2022-12-06T07:55:06.187Z,26.80
2022-12-06T07:57:34.539Z,26.75
2022-12-06T08:00:07.495Z,25.60
2022-12-06T08:02:38.440Z,30.27
2022-12-06T08:05:06.100Z,33.13
2022-12-06T08:07:32.694Z,31.25
2022-12-06T08:09:59.760Z,29.73
2022-12-06T08:12:32.218Z,28.70
2022-12-06T08:15:00.417Z,32.85
2022-12-06T08:17:29.500Z,26.73
2022-12-06T08:19:56.089Z,27.38
2022-12-06T08:22:22.823Z,30.00
2022-12-06T08:24:49.538Z,27.67
2022-12-06T08:27:15.975Z,33.92
2022-12-06T08:29:45.076Z,28.85
2022-12-06T08:32:12.130Z,29.27
2022-12-06T08:34:38.760Z,32.92
2022-12-06T08:37:05.490Z,41.58
2022-12-06T08:39:32.196Z,29.02
2022-12-06T08:41:59.132Z,27.95
2022-12-06T08:44:28.222Z,29.33
2022-12-06T08:46:55.580Z,26.63
2022-12-06T08:49:24.065Z,25.20
2022-12-06T08:51:51.058Z,28.80
2022-12-06T08:54:20.971Z,27.40
2022-12-06T08:56:48.433Z,27.00
2022-12-06T08:59:15.115Z,30.55
2022-12-06T09:01:41.814Z,28.23
2022-12-06T09:04:10.634Z,27.58
2022-12-06T09:09:09.279Z,27.02
2022-12-06T09:11:37.149Z,29.05
2022-12-06T09:14:03.831Z,29.13
2022-12-06T09:16:30.806Z,34.05
2022-12-06T09:18:58.704Z,24.35
2022-12-06T09:21:30.578Z,28.95
2022-12-06T09:23:58.188Z,25.02
2022-12-06T09:26:25.553Z,24.25
2022-12-06T09:28:54.496Z,30.15
2022-12-06T09:31:21.565Z,28.13
2022-12-06T09:33:48.881Z,26.33
2022-12-06T09:36:23.407Z,24.05
2022-12-06T09:38:59.558Z,23.55
2022-12-06T09:41:47.259Z,22.58
2022-12-06T09:44:50.203Z,21.00
2022-12-06T09:47:25.990Z,21.55
2022-12-06T09:50:17.292Z,21.05
2022-12-06T09:52:58.609Z,20.88
2022-12-06T09:55:40.752Z,22.42
2022-12-06T09:58:38.418Z,20.35
2022-12-06T10:01:17.952Z,26.80
2022-12-06T10:03:58.960Z,19.13
2022-12-06T10:06:34.613Z,17.77
2022-12-06T10:09:07.302Z,20.58
2022-12-06T10:11:56.832Z,16.95
2022-12-06T10:14:58.746Z,18.25
2022-12-06T10:17:41.698Z,15.98
2022-12-06T10:20:36.688Z,14.02
2022-12-06T10:23:12.385Z,19.13
2022-12-06T10:25:54.115Z,15.23
2022-12-06T10:30:59.863Z,15.43
2022-12-06T10:33:32.788Z,17.67
2022-12-06T10:36:02.221Z,14.88
2022-12-06T10:38:55.472Z,15.20
2022-12-06T10:41:34.087Z,14.40
2022-12-06T10:44:14.654Z,12.45
2022-12-06T10:47:04.301Z,12.77
2022-12-06T10:49:37.484Z,11.38
2022-12-06T10:52:28.108Z,13.80
2022-12-06T10:55:07.210Z,18.40
2022-12-06T10:57:41.487Z,11.05
2022-12-06T11:00:23.072Z,11.85
2022-12-06T11:05:36.082Z,10.60
2022-12-06T11:08:16.852Z,10.95
2022-12-06T11:10:46.409Z,10.88
2022-12-06T11:13:26.653Z,14.70
2022-12-06T11:16:14.921Z,10.65
2022-12-06T11:18:41.898Z,10.20
2022-12-06T11:21:34.471Z,8.20
2022-12-06T11:24:21.297Z,11.98
2022-12-06T11:26:47.879Z,11.60
2022-12-06T11:29:16.442Z,11.13
2022-12-06T11:31:48.305Z,11.07
2022-12-06T11:34:29.080Z,10.13
2022-12-06T11:37:00.350Z,13.45
2022-12-06T11:39:28.833Z,8.38
2022-12-06T11:41:58.340Z,8.57
2022-12-06T11:44:36.167Z,8.65
2022-12-06T11:47:03.378Z,9.05
2022-12-06T11:49:35.076Z,9.93
2022-12-06T11:52:07.887Z,8.52
2022-12-06T11:54:41.453Z,7.43
2022-12-06T11:57:23.071Z,10.18
2022-12-06T12:00:11.142Z,11.48
2022-12-06T12:02:42.744Z,10.63
2022-12-06T12:07:38.972Z,8.40
2022-12-06T12:10:34.188Z,9.02
2022-12-06T12:13:31.687Z,9.30
2022-12-06T12:16:01.725Z,8.35
2022-12-06T12:18:36.693Z,9.82
2022-12-06T12:21:06.468Z,9.73
2022-12-06T12:23:42.376Z,8.82
2022-12-06T12:26:21.374Z,9.52
2022-12-06T12:29:08.078Z,38.90
2022-12-06T12:31:48.000Z,20.58
2022-12-06T12:34:21.828Z,19.42
2022-12-06T12:36:50.643Z,13.40
2022-12-06T12:39:28.551Z,10.63
2022-12-06T12:41:55.181Z,9.60
2022-12-06T12:44:38.689Z,6.00
2022-12-06T12:47:24.004Z,6.70
2022-12-06T12:50:12.863Z,9.00
2022-12-06T12:52:41.607Z,6.80
2022-12-06T12:55:23.620Z,7.05
2022-12-06T12:57:56.664Z,6.40
2022-12-06T13:00:45.114Z,5.60
2022-12-06T13:03:50.228Z,5.80
2022-12-06T13:06:28.454Z,6.72
2022-12-06T13:08:59.163Z,5.65
2022-12-06T13:11:26.018Z,5.07
2022-12-06T13:13:55.313Z,6.20
2022-12-06T13:16:28.525Z,5.85
2022-12-06T13:18:59.256Z,5.07
2022-12-06T13:21:36.533Z,4.55
2022-12-06T13:24:14.845Z,7.35
2022-12-06T13:26:53.899Z,4.93
2022-12-06T13:29:44.328Z,5.78
2022-12-06T13:32:22.425Z,6.47
2022-12-06T13:34:53.393Z,5.05
2022-12-06T13:37:29.222Z,5.13
2022-12-06T13:39:56.430Z,6.82
2022-12-06T13:42:43.052Z,3.88
2022-12-06T13:45:28.060Z,6.55
2022-12-06T13:47:54.475Z,6.15
2022-12-06T13:50:21.019Z,6.25
2022-12-06T13:52:47.432Z,8.35
2022-12-06T13:55:26.275Z,6.22
2022-12-06T13:57:59.614Z,5.38
2022-12-06T14:00:29.541Z,5.70
2022-12-06T14:02:58.438Z,5.00
2022-12-06T14:06:15.879Z,4.95
2022-12-06T14:08:46.312Z,4.55
2022-12-06T14:11:12.960Z,6.35
2022-12-06T14:13:41.362Z,4.28
2022-12-06T14:16:10.317Z,5.38
2022-12-06T14:18:40.598Z,8.30
2022-12-06T14:21:20.746Z,5.72
2022-12-06T14:23:49.311Z,4.00
2022-12-06T14:26:32.415Z,3.90
2022-12-06T14:29:00.584Z,5.57
2022-12-06T14:31:38.908Z,5.95
2022-12-06T14:34:06.116Z,5.72
2022-12-06T14:36:39.229Z,4.72
2022-12-06T14:39:17.984Z,3.50
2022-12-06T14:42:30.211Z,5.90
2022-12-06T14:45:01.981Z,4.20
2022-12-06T14:47:31.261Z,6.05
2022-12-06T14:50:20.057Z,5.22
2022-12-06T14:53:34.171Z,8.63
2022-12-06T14:56:03.967Z,7.10
2022-12-06T14:58:35.302Z,5.88
2022-12-06T15:01:12.071Z,6.65
2022-12-06T15:03:39.309Z,9.32
2022-12-06T15:06:21.087Z,7.75
2022-12-06T15:11:59.214Z,4.22
2022-12-06T15:14:35.322Z,5.05
2022-12-06T15:17:06.576Z,6.50
2022-12-06T15:19:36.185Z,4.45
2022-12-06T15:22:04.056Z,4.50
2022-12-06T15:24:31.298Z,6.30
2022-12-06T15:26:57.774Z,6.45
2022-12-06T15:29:24.326Z,4.78
2022-12-06T15:31:54.116Z,7.63
2022-12-06T15:34:25.086Z,5.95
2022-12-06T15:37:08.927Z,6.32
2022-12-06T15:39:39.925Z,5.50
2022-12-06T15:42:27.531Z,8.05
2022-12-06T15:44:55.245Z,8.00
2022-12-06T15:47:21.766Z,5.38
2022-12-06T15:49:50.956Z,8.70
2022-12-06T15:52:23.204Z,5.72
2022-12-06T15:54:50.951Z,7.28
2022-12-06T15:57:17.707Z,9.05
2022-12-06T15:59:44.356Z,5.05
2022-12-06T16:02:18.584Z,7.25
2022-12-06T16:04:45.953Z,8.02
2022-12-06T16:07:18.273Z,7.85
2022-12-06T16:09:44.808Z,7.18
2022-12-06T16:12:11.373Z,6.57
2022-12-06T16:14:37.821Z,6.20
2022-12-06T16:17:04.419Z,7.40
2022-12-06T16:19:50.940Z,6.00
2022-12-06T16:22:17.751Z,6.47
2022-12-06T16:24:47.133Z,8.77
2022-12-06T16:27:15.970Z,6.35
2022-12-06T16:29:42.580Z,11.93
2022-12-06T16:32:09.210Z,9.93
2022-12-06T16:34:35.670Z,11.63
2022-12-06T16:37:05.002Z,12.38
2022-12-06T16:39:33.957Z,9.73
2022-12-06T16:42:01.454Z,10.73
2022-12-06T16:44:28.337Z,8.55
2022-12-06T16:46:55.164Z,10.75
2022-12-06T16:52:11.285Z,7.63
2022-12-06T16:54:41.013Z,9.65
2022-12-06T16:57:07.985Z,9.70
2022-12-06T16:59:35.123Z,8.40
2022-12-06T17:02:01.698Z,10.90
2022-12-06T17:04:30.660Z,8.93
2022-12-06T17:06:57.280Z,9.05
2022-12-06T17:09:23.810Z,10.25
2022-12-06T17:12:02.809Z,9.55
2022-12-06T17:14:30.132Z,7.82
2022-12-06T17:16:59.158Z,8.55
2022-12-06T17:19:27.927Z,9.82
2022-12-06T17:21:54.717Z,8.52
2022-12-06T17:24:22.206Z,9.45
2022-12-06T17:26:48.964Z,7.55
2022-12-06T17:29:15.750Z,9.20
2022-12-06T17:31:42.645Z,8.18
2022-12-06T17:34:11.845Z,8.27
2022-12-06T17:36:38.364Z,7.90
2022-12-06T17:39:09.575Z,9.45
2022-12-06T17:41:55.212Z,7.15
2022-12-06T17:44:21.787Z,8.13
2022-12-06T17:46:48.290Z,6.53
2022-12-06T17:49:18.321Z,7.95
2022-12-06T17:51:45.101Z,4.88
2022-12-06T17:54:12.477Z,6.20
2022-12-06T17:56:44.108Z,8.10
2022-12-06T17:59:16.557Z,11.13
2022-12-06T18:02:14.691Z,5.45
2022-12-06T18:04:31.253Z,9.80
2022-12-06T18:06:58.252Z,5.68
2022-12-06T18:09:24.921Z,9.40
2022-12-06T18:11:51.627Z,5.78
2022-12-06T18:14:18.048Z,12.60
2022-12-06T18:16:48.432Z,5.68
2022-12-06T18:19:18.119Z,8.88
2022-12-06T18:21:44.977Z,6.78
2022-12-06T18:24:24.706Z,6.57
2022-12-06T18:26:54.489Z,6.05
2022-12-06T18:29:24.927Z,7.60
2022-12-06T18:31:52.166Z,7.57
2022-12-06T18:34:19.336Z,8.90
2022-12-06T18:36:46.240Z,5.88
2022-12-06T18:39:16.145Z,7.18
2022-12-06T18:41:46.351Z,8.82
2022-12-06T18:44:13.417Z,8.60
2022-12-06T18:46:42.693Z,7.30
2022-12-06T18:49:11.997Z,9.95
2022-12-06T18:51:39.048Z,8.35
2022-12-06T18:54:06.697Z,7.38
2022-12-06T18:56:34.523Z,7.15
2022-12-06T18:59:03.649Z,10.27
2022-12-06T19:01:33.223Z,8.55
2022-12-06T19:04:02.828Z,6.78
2022-12-06T19:06:32.430Z,9.15
2022-12-06T19:09:01.792Z,8.90
2022-12-06T19:11:28.701Z,10.32
2022-12-06T19:14:00.393Z,7.88
2022-12-06T19:16:28.556Z,7.05
2022-12-06T19:18:57.105Z,7.75
2022-12-06T19:21:24.439Z,8.00
2022-12-06T19:23:58.872Z,8.05
2022-12-06T19:26:27.178Z,8.20
2022-12-06T19:28:54.457Z,7.72
2022-12-06T19:31:22.988Z,7.25
2022-12-06T19:36:24.851Z,7.95
2022-12-06T19:38:59.215Z,9.07
2022-12-06T19:41:26.259Z,7.00
2022-12-06T19:44:11.603Z,7.65
2022-12-06T19:46:41.237Z,8.45
2022-12-06T19:49:08.250Z,9.43
2022-12-06T19:51:36.880Z,9.40
2022-12-06T19:56:32.520Z,8.10
2022-12-06T20:01:26.969Z,7.43
2022-12-06T20:03:54.459Z,7.10
2022-12-06T20:06:24.107Z,8.18
2022-12-06T20:08:52.244Z,11.35
2022-12-06T20:11:39.932Z,7.90
2022-12-06T20:14:12.547Z,10.20
2022-12-06T20:16:40.030Z,7.97
2022-12-06T20:19:07.372Z,10.50
2022-12-06T20:21:35.086Z,8.80
2022-12-06T20:24:02.651Z,7.13
2022-12-06T20:26:31.893Z,9.38
2022-12-06T20:28:59.481Z,7.70
2022-12-06T20:31:28.702Z,8.63
2022-12-06T20:33:59.864Z,7.80
2022-12-06T20:36:27.266Z,7.72
2022-12-06T20:38:55.416Z,7.55
2022-12-06T20:41:24.691Z,7.07
2022-12-06T20:43:52.239Z,8.30
2022-12-06T20:46:23.034Z,12.18
2022-12-06T20:48:49.633Z,9.13
2022-12-06T20:51:21.705Z,7.90
2022-12-06T20:53:49.115Z,10.00
2022-12-06T20:56:18.664Z,8.52
2022-12-06T20:58:51.718Z,13.70
2022-12-06T21:01:26.711Z,9.15
2022-12-06T21:06:22.724Z,8.23
2022-12-06T21:08:49.667Z,8.02
2022-12-06T21:11:24.941Z,7.80
2022-12-06T21:13:53.598Z,8.32
2022-12-06T21:18:49.349Z,9.77
2022-12-06T21:21:24.449Z,8.02
2022-12-06T21:26:17.812Z,8.35
2022-12-06T21:28:45.104Z,8.80
2022-12-06T21:31:11.980Z,10.27
2022-12-06T21:33:38.888Z,9.45
2022-12-06T21:36:06.835Z,9.32
2022-12-06T21:38:33.389Z,10.55
2022-12-06T21:41:12.122Z,10.32
2022-12-06T21:43:39.480Z,8.45
2022-12-06T21:46:12.003Z,9.98
2022-12-06T21:48:38.977Z,11.40
2022-12-06T21:51:08.817Z,10.90
2022-12-06T21:53:36.159Z,9.40
2022-12-06T21:56:13.164Z,8.15
2022-12-06T21:58:39.826Z,13.57
2022-12-06T22:01:08.716Z,10.10
2022-12-06T22:03:36.091Z,10.23
2022-12-06T22:06:11.448Z,10.40
2022-12-06T22:08:39.444Z,10.43
2022-12-06T22:11:15.558Z,11.02
2022-12-06T22:13:42.151Z,10.88
2022-12-06T22:16:11.343Z,13.30
2022-12-06T22:18:45.005Z,14.32
2022-12-06T22:21:18.729Z,8.77
2022-12-06T22:23:46.618Z,9.25
2022-12-06T22:26:21.805Z,9.80
2022-12-06T22:28:48.656Z,10.40
2022-12-06T22:31:18.125Z,13.27
2022-12-06T22:33:45.849Z,9.07
2022-12-06T22:36:13.981Z,10.43
2022-12-06T22:38:40.777Z,9.23
2022-12-06T22:41:08.895Z,10.95
2022-12-06T22:43:35.943Z,10.63
2022-12-06T22:46:06.724Z,10.90
2022-12-06T22:48:33.431Z,9.77
2022-12-06T22:51:24.811Z,9.95
2022-12-06T22:53:59.617Z,8.90
2022-12-06T22:56:27.319Z,11.07
2022-12-06T22:58:58.538Z,9.95
2022-12-06T23:01:27.525Z,10.02
2022-12-06T23:03:54.672Z,12.80
2022-12-06T23:06:23.580Z,10.38
2022-12-06T23:08:50.591Z,11.95
2022-12-06T23:11:20.108Z,10.50
2022-12-06T23:13:46.585Z,11.25
2022-12-06T23:16:18.812Z,10.32
2022-12-06T23:18:46.487Z,11.30
2022-12-06T23:21:17.220Z,13.73
2022-12-06T23:23:49.070Z,11.02
2022-12-06T23:26:18.660Z,13.95
2022-12-06T23:28:45.816Z,12.07
2022-12-06T23:31:15.583Z,10.57
2022-12-06T23:33:43.090Z,12.60
2022-12-06T23:36:09.618Z,10.77
2022-12-06T23:38:36.736Z,9.60
2022-12-06T23:41:09.131Z,12.13
2022-12-06T23:43:36.566Z,11.02
2022-12-06T23:46:07.431Z,12.18
2022-12-06T23:48:35.538Z,14.30
2022-12-06T23:51:07.233Z,14.43
2022-12-06T23:53:34.600Z,10.88
2022-12-06T23:56:03.696Z,10.82
2022-12-06T23:58:30.218Z,14.77
